Time;durP1;ratioP1;P1;durP2;ratioP2;P2;SDS_P1;SDS_P2;PMS_P1;PMS_P2;Temp;Humidity;BMP_temperature;BMP_pressure;BME280_temperature;BME280_humidity;BME280_pressure;Samples;Min_cycle;Max_cycle;Signal;HPM_P1;HPM_P2
2022/12/24 00:00:28;;;;;;;15.85;5.53;;;;;;;8.09;98.46;99203.38;10607075;27;20092;-78
2022/12/24 00:05:31;;;;;;;10.48;5.07;;;;;;;8.34;96.52;99210.06;10611254;27;20039;-79
2022/12/24 00:10:34;;;;;;;18.40;4.65;;;;;;;8.57;94.73;99214.19;10620092;27;20039;-79
2022/12/24 00:15:38;;;;;;;8.70;3.58;;;;;;;8.43;95.09;99211.91;10607857;27;20043;-78
2022/12/24 00:20:41;;;;;;;14.88;4.07;;;;;;;8.40;95.39;99207.66;10611015;27;20074;-78
2022/12/24 00:25:44;;;;;;;7.15;3.88;;;;;;;8.32;96.22;99209.34;10611430;27;20458;-79
2022/12/24 00:30:48;;;;;;;14.57;4.10;;;;;;;8.33;94.14;99224.41;10612198;27;20058;-79
2022/12/24 00:35:52;;;;;;;5.93;2.50;;;;;;;8.39;93.39;99240.78;10587045;28;20051;-78
2022/12/24 00:40:58;;;;;;;8.20;2.50;;;;;;;8.38;93.08;99249.78;10601218;27;20758;-78
2022/12/24 00:46:02;;;;;;;8.82;3.35;;;;;;;7.75;96.02;99243.81;10612958;27;20035;-79
2022/12/24 00:51:05;;;;;;;11.80;3.45;;;;;;;8.04;95.08;99259.97;10612211;27;20067;-78
2022/12/24 00:56:09;;;;;;;11.18;2.90;;;;;;;7.79;94.87;99271.09;10653046;27;20062;-78
2022/12/24 01:01:13;;;;;;;11.85;3.78;;;;;;;7.84;96.32;99282.25;10604092;27;20066;-78
2022/12/24 01:06:18;;;;;;;12.73;4.28;;;;;;;7.90;95.92;99290.59;10608154;27;20047;-78
2022/12/24 01:11:21;;;;;;;8.10;3.40;;;;;;;8.00;93.73;99290.63;10578048;27;20436;-79
2022/12/24 01:16:25;;;;;;;9.80;3.58;;;;;;;8.10;94.26;99286.16;10607099;27;20050;-78
2022/12/24 01:21:28;;;;;;;13.32;3.35;;;;;;;7.99;94.13;99294.28;10605622;27;20224;-78
2022/12/24 01:26:31;;;;;;;13.38;3.30;;;;;;;7.78;94.44;99322.88;10600539;27;20075;-79
2022/12/24 01:31:35;;;;;;;12.10;4.65;;;;;;;7.87;94.22;99322.06;10600616;27;20114;-79
2022/12/24 01:36:38;;;;;;;11.13;2.70;;;;;;;7.78;94.59;99328.22;10606924;27;20049;-78
2022/12/24 01:47:08;;;;;;;19.15;4.88;;;;;;;7.90;94.53;99341.41;10608733;27;20046;-79
2022/12/24 01:52:14;;;;;;;12.35;2.42;;;;;;;7.69;94.58;99360.13;10594722;27;20040;-79
2022/12/24 01:57:22;;;;;;;14.60;3.65;;;;;;;7.56;94.56;99356.78;10606193;27;20061;-79
2022/12/24 02:02:27;;;;;;;26.27;4.68;;;;;;;7.80;93.78;99364.56;10599682;27;20128;-78
2022/12/24 02:07:31;;;;;;;12.18;3.45;;;;;;;7.80;92.90;99387.78;10588084;28;20055;-78
2022/12/24 02:12:37;;;;;;;16.42;3.88;;;;;;;7.62;93.22;99379.47;10585230;28;20079;-78
2022/12/24 02:17:50;;;;;;;19.88;4.50;;;;;;;7.73;92.65;99401.66;10605032;27;20050;-78
2022/12/24 02:23:10;;;;;;;15.10;3.83;;;;;;;7.88;91.15;99412.03;10602396;27;20444;-79
2022/12/24 02:28:29;;;;;;;36.65;4.28;;;;;;;7.86;90.67;99430.84;10586490;28;20044;-79
2022/12/24 02:33:38;;;;;;;26.75;5.13;;;;;;;7.83;90.37;99416.91;10605178;27;20032;-79
2022/12/24 02:38:47;;;;;;;24.42;6.00;;;;;;;7.78;90.46;99414.63;10609965;28;20043;-79
2022/12/24 02:43:52;;;;;;;26.52;5.70;;;;;;;7.56;91.71;99420.09;10598464;28;20120;-79
2022/12/24 02:48:59;;;;;;;17.48;3.58;;;;;;;7.63;91.12;99450.69;10605168;28;20485;-80
2022/12/24 02:54:02;;;;;;;30.45;7.32;;;;;;;7.55;92.76;99443.28;10605304;27;20093;-79
2022/12/24 02:59:34;;;;;;;15.10;4.22;;;;;;;7.57;90.81;99457.38;10622390;27;20082;-79
2022/12/24 03:04:46;;;;;;;21.33;3.88;;;;;;;7.55;91.16;99466.50;10594107;28;20534;-79
2022/12/24 03:10:07;;;;;;;24.17;6.63;;;;;;;7.58;90.36;99475.09;10606101;27;20455;-80
2022/12/24 03:15:13;;;;;;;28.30;5.90;;;;;;;8.01;89.11;99486.69;10601322;27;20141;-80
2022/12/24 03:20:20;;;;;;;25.48;6.43;;;;;;;7.86;89.03;99507.56;10611450;27;20082;-79
2022/12/24 03:25:25;;;;;;;28.70;6.28;;;;;;;7.94;87.81;99515.78;10595940;28;20097;-79
2022/12/24 03:30:28;;;;;;;18.55;4.82;;;;;;;7.99;87.75;99523.44;10598763;27;20047;-79
2022/12/24 03:35:32;;;;;;;31.23;6.50;;;;;;;7.80;89.11;99527.63;10612648;27;20047;-79
2022/12/24 03:40:35;;;;;;;27.75;6.55;;;;;;;7.82;88.72;99532.88;10613353;27;20052;-79
2022/12/24 03:45:38;;;;;;;27.08;6.53;;;;;;;7.85;88.08;99541.47;10607052;27;20077;-79
2022/12/24 03:50:42;;;;;;;15.43;5.47;;;;;;;7.65;88.27;99551.16;10614953;27;20101;-79
2022/12/24 03:55:47;;;;;;;27.70;5.53;;;;;;;7.75;87.51;99529.84;10614842;27;20126;-79
2022/12/24 04:00:50;;;;;;;30.30;5.30;;;;;;;7.81;86.98;99556.06;10608554;27;20150;-79
2022/12/24 04:06:02;;;;;;;27.83;4.53;;;;;;;8.04;86.42;99558.66;10604556;27;20047;-78
2022/12/24 04:11:06;;;;;;;31.77;5.72;;;;;;;8.03;85.66;99557.78;10613606;27;20118;-77
2022/12/24 04:16:14;;;;;;;18.40;4.05;;;;;;;7.84;85.79;99577.19;10604208;27;20195;-78
2022/12/24 04:21:18;;;;;;;27.90;5.80;;;;;;;8.04;85.21;99574.72;10611224;27;20123;-78
2022/12/24 04:26:21;;;;;;;35.03;5.32;;;;;;;8.04;85.20;99578.22;10608045;27;20126;-78
2022/12/24 04:31:24;;;;;;;19.83;4.60;;;;;;;8.08;85.00;99600.22;10601149;27;20069;-78
2022/12/24 04:36:28;;;;;;;20.23;5.07;;;;;;;7.99;85.22;99595.63;10611346;27;20478;-77
2022/12/24 04:41:31;;;;;;;27.77;6.28;;;;;;;7.86;85.64;99615.34;10609141;27;20526;-78
2022/12/24 04:46:34;;;;;;;27.80;5.97;;;;;;;7.78;85.59;99596.41;10606604;27;20055;-78
2022/12/24 04:51:38;;;;;;;30.95;7.47;;;;;;;7.89;85.56;99632.97;10599232;27;20122;-78
2022/12/24 04:56:41;;;;;;;25.10;5.78;;;;;;;7.64;85.78;99632.28;10613452;27;20423;-78
2022/12/24 05:01:44;;;;;;;29.73;6.30;;;;;;;7.61;85.46;99645.06;10596151;27;20066;-77
2022/12/24 05:06:48;;;;;;;28.08;5.53;;;;;;;7.91;84.05;99634.56;10608464;27;20127;-78
2022/12/24 05:11:51;;;;;;;26.60;5.28;;;;;;;8.21;82.57;99637.50;10598385;27;20791;-77
2022/12/24 05:16:54;;;;;;;22.75;5.97;;;;;;;7.80;83.62;99647.09;10562486;28;20111;-78
2022/12/24 05:27:19;;;;;;;32.50;4.90;;;;;;;7.57;83.49;99663.19;10612434;27;20035;-77
2022/12/24 05:32:22;;;;;;;21.55;5.68;;;;;;;8.07;82.21;99668.06;10611787;27;20039;-77
2022/12/24 05:37:26;;;;;;;22.55;5.25;;;;;;;7.95;82.25;99677.94;10587437;27;20048;-77
2022/12/24 05:42:29;;;;;;;29.60;6.45;;;;;;;8.27;80.89;99680.66;10594048;27;20108;-78
2022/12/24 05:47:31;;;;;;;30.27;6.75;;;;;;;7.92;81.75;99684.38;10604100;27;20126;-78
2022/12/24 05:52:42;;;;;;;31.35;4.85;;;;;;;7.99;82.06;99690.09;10590045;27;20036;-78
2022/12/24 05:57:45;;;;;;;31.10;5.50;;;;;;;8.06;81.15;99709.16;10597673;27;20117;-78
2022/12/24 06:02:48;;;;;;;31.27;5.57;;;;;;;7.67;82.87;99698.03;10600555;27;20071;-77
2022/12/24 06:07:52;;;;;;;35.17;7.03;;;;;;;7.49;84.53;99697.69;10606114;27;20074;-77
2022/12/24 06:12:55;;;;;;;30.75;5.80;;;;;;;7.59;83.14;99706.66;10607582;27;20467;-78
2022/12/24 06:17:58;;;;;;;24.88;6.07;;;;;;;7.65;82.50;99710.66;10608007;27;20044;-78
2022/12/24 06:23:02;;;;;;;24.13;5.28;;;;;;;7.71;82.59;99716.38;10601341;27;20523;-78
2022/12/24 06:28:05;;;;;;;37.10;8.05;;;;;;;7.71;82.91;99718.22;10597102;27;20085;-78
2022/12/24 06:33:08;;;;;;;32.17;5.53;;;;;;;7.55;83.21;99723.91;10600055;27;20051;-78
2022/12/24 06:38:12;;;;;;;32.85;7.13;;;;;;;7.85;83.19;99717.09;10592241;28;20100;-77
2022/12/24 06:43:16;;;;;;;44.72;7.05;;;;;;;7.69;83.38;99725.50;10603568;28;20065;-77
2022/12/24 06:48:18;;;;;;;31.42;8.80;;;;;;;7.85;83.56;99746.53;10602416;28;20048;-78
2022/12/24 06:53:23;;;;;;;27.60;7.93;;;;;;;8.01;82.67;99732.75;10600321;28;20047;-78
2022/12/24 06:58:25;;;;;;;31.90;7.63;;;;;;;7.71;84.48;99737.75;10591693;28;20135;-78
2022/12/24 07:03:28;;;;;;;28.42;8.40;;;;;;;7.89;83.32;99737.25;10602553;28;20551;-78
2022/12/24 07:08:35;;;;;;;41.08;9.05;;;;;;;7.72;85.21;99747.47;10597976;28;20048;-77
2022/12/24 07:13:38;;;;;;;39.63;8.82;;;;;;;7.78;85.50;99746.13;10610060;28;20046;-77
2022/12/24 07:18:41;;;;;;;37.55;9.63;;;;;;;7.80;85.88;99767.41;10610937;27;20233;-77
2022/12/24 07:23:45;;;;;;;35.45;7.75;;;;;;;7.65;85.88;99761.44;10607248;28;20062;-78
2022/12/24 07:28:48;;;;;;;46.90;10.13;;;;;;;7.62;88.15;99767.03;10601786;28;20048;-77
2022/12/24 07:33:51;;;;;;;30.20;9.52;;;;;;;7.57;89.00;99774.56;10614227;28;20031;-77
2022/12/24 07:38:56;;;;;;;44.22;10.77;;;;;;;8.01;87.54;99772.88;10592293;27;20098;-77
2022/12/24 07:43:59;;;;;;;40.20;11.07;;;;;;;8.02;87.82;99796.81;10603470;27;20085;-77
2022/12/24 07:49:02;;;;;;;40.35;9.60;;;;;;;7.64;90.93;99800.69;10611839;27;20035;-77
2022/12/24 07:54:07;;;;;;;32.67;8.88;;;;;;;7.66;90.09;99804.09;10592566;27;20127;-76
2022/12/24 07:59:12;;;;;;;29.80;7.63;;;;;;;7.36;91.48;99810.00;10602066;27;20039;-77
2022/12/24 08:04:15;;;;;;;42.38;12.23;;;;;;;7.64;90.53;99819.41;10621232;27;20134;-77
2022/12/24 08:09:20;;;;;;;47.13;13.18;;;;;;;7.75;90.43;99812.38;10581953;27;20040;-77
2022/12/24 08:14:23;;;;;;;53.35;14.80;;;;;;;7.77;90.01;99816.63;10619561;27;20040;-78
2022/12/24 08:19:26;;;;;;;49.40;14.23;;;;;;;7.88;89.66;99822.00;10606474;27;20043;-78
2022/12/24 08:24:30;;;;;;;47.05;14.30;;;;;;;7.86;90.30;99823.09;10613652;27;20122;-77
2022/12/24 08:29:33;;;;;;;50.92;17.88;;;;;;;7.63;91.87;99844.44;10600792;27;20052;-78
2022/12/24 08:34:36;;;;;;;44.40;13.18;;;;;;;7.47;92.60;99847.44;10630035;27;20039;-78
2022/12/24 08:39:41;;;;;;;35.00;14.10;;;;;;;7.58;92.59;99849.28;10651710;27;20051;-79
2022/12/24 08:44:45;;;;;;;27.52;12.10;;;;;;;7.74;92.16;99859.66;10645754;27;20063;-80
2022/12/24 08:49:52;;;;;;;34.88;11.45;;;;;;;7.57;94.36;99868.09;10618883;27;20074;-80
2022/12/24 08:54:59;;;;;;;34.55;12.50;;;;;;;7.28;95.95;99877.38;10664686;27;20046;-81
2022/12/24 09:00:03;;;;;;;40.78;13.60;;;;;;;7.76;94.03;99891.59;10638503;27;20044;-79
2022/12/24 09:05:07;;;;;;;38.63;11.00;;;;;;;7.64;95.13;99902.28;10622562;27;20039;-80
2022/12/24 09:10:12;;;;;;;29.17;11.68;;;;;;;7.67;94.98;99891.34;10648116;27;20129;-80
2022/12/24 09:15:17;;;;;;;35.58;12.90;;;;;;;7.71;94.92;99897.31;10647423;22;20118;-82
2022/12/24 09:20:28;;;;;;;27.65;8.02;;;;;;;7.13;96.36;99896.38;10549952;28;20058;-81
2022/12/24 09:25:35;;;;;;;17.55;5.88;;;;;;;7.49;95.57;99914.16;10532847;28;20123;-77
2022/12/24 09:30:38;;;;;;;28.30;8.00;;;;;;;7.45;96.85;99928.69;10485641;28;20053;-83
2022/12/24 09:35:41;;;;;;;30.10;8.07;;;;;;;7.26;98.20;99940.75;10477355;28;20061;-84
2022/12/24 09:40:48;;;;;;;26.33;9.02;;;;;;;7.26;99.63;99951.44;10502815;28;20026;-79
2022/12/24 09:46:06;;;;;;;28.08;10.68;;;;;;;7.48;98.21;99956.03;10500148;28;20097;-81
2022/12/24 09:51:21;;;;;;;26.75;9.73;;;;;;;7.54;98.56;99965.41;10496474;28;20111;-77
2022/12/24 09:56:27;;;;;;;29.23;10.40;;;;;;;7.53;98.33;99978.91;10512497;28;20032;-78
2022/12/24 10:01:33;;;;;;;36.15;11.82;;;;;;;7.52;99.37;99972.72;10529597;28;20033;-80
2022/12/24 10:06:47;;;;;;;34.03;10.05;;;;;;;7.65;98.01;99981.53;10527199;28;20052;-78
2022/12/24 10:12:02;;;;;;;40.28;10.30;;;;;;;7.67;97.97;99973.38;10529153;28;20040;-79
2022/12/24 10:17:22;;;;;;;29.63;10.40;;;;;;;7.62;97.76;99988.91;10509189;28;20052;-79
2022/12/24 10:22:34;;;;;;;34.97;11.07;;;;;;;7.63;97.64;99983.44;10509148;28;20033;-79
2022/12/24 10:27:40;;;;;;;41.33;11.65;;;;;;;7.46;97.58;99997.19;10473987;28;20099;-79
2022/12/24 10:32:43;;;;;;;29.65;10.80;;;;;;;7.92;95.31;99994.59;10471422;28;20059;-79
2022/12/24 10:37:48;;;;;;;26.60;8.43;;;;;;;7.80;94.61;100006.25;10495557;28;20045;-79
2022/12/24 10:42:52;;;;;;;41.97;9.95;;;;;;;8.05;93.66;100009.72;10475526;28;20079;-77
2022/12/24 10:48:02;;;;;;;47.17;11.40;;;;;;;8.15;93.60;100005.38;10473973;28;20079;-78
2022/12/24 10:53:14;;;;;;;33.88;8.07;;;;;;;8.03;92.41;100015.19;10480236;28;20033;-77
2022/12/24 10:58:20;;;;;;;24.73;7.33;;;;;;;8.28;90.83;100027.56;10474064;28;20083;-79
2022/12/24 11:03:30;;;;;;;22.52;6.50;;;;;;;8.20;90.34;100021.06;10477883;28;20076;-77
2022/12/24 11:08:36;;;;;;;24.08;6.35;;;;;;;8.15;89.56;100032.97;10500755;28;20041;-78
2022/12/24 11:13:43;;;;;;;32.92;5.57;;;;;;;8.17;88.47;100032.84;10457170;28;20064;-78
2022/12/24 11:18:49;;;;;;;33.30;6.93;;;;;;;8.13;89.26;100032.25;10462787;28;20081;-77
2022/12/24 11:23:56;;;;;;;30.67;7.72;;;;;;;8.38;88.19;100035.69;10461143;28;20041;-77
2022/12/24 11:29:16;;;;;;;27.23;7.15;;;;;;;8.45;87.82;100017.34;10444904;28;20090;-77
2022/12/24 11:34:26;;;;;;;23.63;6.28;;;;;;;8.42;86.61;100022.94;10472647;28;20040;-77
2022/12/24 11:39:28;;;;;;;30.35;7.72;;;;;;;8.66;85.56;100022.88;10459751;28;20041;-76
2022/12/24 11:44:33;;;;;;;23.88;6.35;;;;;;;9.23;84.87;100009.31;10460001;28;20468;-78
2022/12/24 11:49:35;;;;;;;31.90;6.38;;;;;;;10.27;79.46;100015.88;10477417;28;20064;-78
2022/12/24 11:54:45;;;;;;;19.40;4.72;;;;;;;9.90;78.77;100012.78;10476486;28;20124;-77
2022/12/24 11:59:51;;;;;;;22.92;5.00;;;;;;;10.38;78.21;100013.13;10478266;28;20128;-77
2022/12/24 12:04:58;;;;;;;17.50;5.68;;;;;;;10.16;77.67;100014.13;10478655;28;20094;-77
2022/12/24 12:10:06;;;;;;;22.40;5.40;;;;;;;10.12;76.12;100026.09;10484360;28;20040;-78
2022/12/24 12:15:16;;;;;;;20.67;5.55;;;;;;;9.13;79.04;100028.94;10458723;28;20056;-78
2022/12/24 12:20:23;;;;;;;25.95;5.57;;;;;;;9.14;78.87;100027.97;10466218;28;20045;-78
2022/12/24 12:25:32;;;;;;;18.85;5.55;;;;;;;8.96;78.92;100044.53;10481232;28;20486;-78
2022/12/24 12:30:39;;;;;;;29.77;6.65;;;;;;;8.95;79.56;100045.53;10476077;28;20059;-77
2022/12/24 12:35:44;;;;;;;28.55;6.32;;;;;;;8.88;80.52;100051.50;10473670;28;20663;-77
2022/12/24 12:41:01;;;;;;;27.38;6.97;;;;;;;8.84;80.80;100058.91;10474799;28;20094;-78
2022/12/24 12:46:18;;;;;;;25.13;5.50;;;;;;;8.89;80.54;100058.56;10478689;28;20394;-78
2022/12/24 12:51:28;;;;;;;27.05;6.15;;;;;;;8.45;81.58;100069.06;10470069;28;20486;-77
2022/12/24 12:56:34;;;;;;;28.55;6.57;;;;;;;8.91;79.78;100065.47;10482941;28;20084;-77
2022/12/24 13:01:46;;;;;;;23.77;6.35;;;;;;;8.95;80.06;100068.78;10489389;28;20040;-77
2022/12/24 13:07:05;;;;;;;;;;;;;;;8.80;79.97;100071.72;10473643;28;20048;-78
2022/12/24 13:12:29;;;;;;;29.95;6.30;;;;;;;9.06;79.33;100083.03;10491164;28;19924;-77
2022/12/24 13:17:54;;;;;;;19.52;5.47;;;;;;;8.97;79.15;100089.13;10473854;28;20043;-77
2022/12/24 13:22:59;;;;;;;23.33;6.07;;;;;;;9.19;78.48;100093.63;10478227;28;20040;-78
2022/12/24 13:28:16;;;;;;;26.17;5.85;;;;;;;8.89;78.77;100088.03;10479561;28;20048;-77
2022/12/24 13:33:47;;;;;;;22.55;5.38;;;;;;;8.82;79.09;100093.84;10463750;28;20480;-77
2022/12/24 13:38:52;;;;;;;20.33;5.10;;;;;;;8.58;78.48;100096.63;10454478;28;20229;-76
2022/12/24 13:44:02;;;;;;;17.92;5.07;;;;;;;8.69;78.72;100105.63;10454706;28;20045;-77
2022/12/24 13:49:17;;;;;;;24.73;6.00;;;;;;;8.84;77.36;100115.16;10478550;28;20052;-77
2022/12/24 13:54:31;;;;;;;20.50;5.28;;;;;;;9.12;76.01;100126.41;10468945;28;20091;-76
2022/12/24 13:59:37;;;;;;;26.85;5.38;;;;;;;8.63;77.66;100127.53;10471005;28;20056;-79
2022/12/24 14:04:42;;;;;;;25.58;5.95;;;;;;;8.68;77.81;100139.59;10487333;28;20032;-79
2022/12/24 14:09:50;;;;;;;20.58;5.60;;;;;;;8.74;78.24;100157.03;10499569;28;20087;-79
2022/12/24 14:14:53;;;;;;;26.92;6.25;;;;;;;8.49;79.07;100155.38;10476891;28;20509;-78
2022/12/24 14:19:59;;;;;;;27.33;5.72;;;;;;;8.78;78.84;100159.34;10493990;28;20052;-78
2022/12/24 14:25:07;;;;;;;25.52;6.35;;;;;;;8.74;77.21;100163.22;10487241;28;20060;-78
2022/12/24 14:30:19;;;;;;;25.52;5.20;;;;;;;9.09;77.01;100178.41;10495039;28;20045;-78
2022/12/24 14:35:27;;;;;;;25.35;4.68;;;;;;;8.74;77.21;100175.75;10491924;28;20040;-79
2022/12/24 14:40:33;;;;;;;21.02;4.95;;;;;;;8.84;77.58;100192.84;10489853;28;20036;-79
2022/12/24 14:45:41;;;;;;;31.90;5.97;;;;;;;9.16;77.18;100190.34;10489898;28;20036;-79
2022/12/24 14:51:02;;;;;;;25.05;6.90;;;;;;;8.88;78.41;100204.16;10500332;28;20058;-79
2022/12/24 14:56:14;;;;;;;30.05;7.18;;;;;;;8.99;78.06;100204.19;10472279;28;20044;-79
2022/12/24 15:01:23;;;;;;;37.65;6.45;;;;;;;9.15;78.78;100212.75;10479318;28;20055;-78
2022/12/24 15:06:28;;;;;;;32.60;7.78;;;;;;;9.04;79.01;100226.97;10494669;28;20052;-78
2022/12/24 15:11:32;;;;;;;21.48;7.20;;;;;;;9.01;78.56;100231.72;10471372;28;20056;-79
2022/12/24 15:16:36;;;;;;;15.90;5.63;;;;;;;8.91;78.54;100239.59;10474694;28;20040;-79
2022/12/24 15:21:42;;;;;;;29.80;6.90;;;;;;;8.89;78.93;100251.44;10489137;28;20043;-79
2022/12/24 15:26:45;;;;;;;20.50;6.78;;;;;;;8.85;78.77;100256.16;10482290;28;20049;-79
2022/12/24 15:31:53;;;;;;;22.80;6.38;;;;;;;8.76;78.99;100267.56;10503475;28;20040;-79
2022/12/24 15:37:10;;;;;;;33.03;6.80;;;;;;;8.66;78.63;100270.06;10495624;28;20040;-78
2022/12/24 15:42:18;;;;;;;19.83;6.55;;;;;;;8.57;78.33;100271.63;10492372;28;20045;-79
2022/12/24 15:47:27;;;;;;;27.63;7.40;;;;;;;8.31;80.19;100276.19;10498309;28;20044;-79
2022/12/24 15:52:31;;;;;;;31.05;7.63;;;;;;;8.29;79.85;100285.31;10471089;28;20108;-79
2022/12/24 15:57:35;;;;;;;22.30;6.22;;;;;;;8.36;79.29;100289.22;10473876;28;20076;-79
2022/12/24 16:02:40;;;;;;;28.80;7.88;;;;;;;8.16;79.77;100293.38;10491700;28;20052;-79
2022/12/24 16:08:09;;;;;;;25.30;7.38;;;;;;;8.42;79.39;100294.16;10469137;28;20068;-77
2022/12/24 16:13:16;;;;;;;31.00;8.60;;;;;;;8.35;79.37;100293.72;10484528;28;20041;-78
2022/12/24 16:18:23;;;;;;;34.67;7.32;;;;;;;8.10;79.42;100307.19;10495086;28;20048;-79
2022/12/24 16:23:36;;;;;;;30.65;8.07;;;;;;;7.85;80.48;100316.13;10492863;28;20049;-78
2022/12/24 16:28:39;;;;;;;26.60;7.80;;;;;;;7.82;80.32;100330.56;10476272;28;20072;-77
2022/12/24 16:33:43;;;;;;;31.60;8.38;;;;;;;8.15;79.51;100326.44;10498524;28;20048;-78
2022/12/24 16:44:07;;;;;;;25.67;7.22;;;;;;;7.83;80.05;100337.59;10491800;28;20092;-78
2022/12/24 16:49:15;;;;;;;;;;;;;;;7.86;79.95;100336.53;10473445;28;20067;-77
2022/12/24 16:54:19;;;;;;;30.13;9.27;;;;;;;7.81;79.99;100352.03;10496286;28;19962;-78
2022/12/24 16:59:24;;;;;;;25.48;9.43;;;;;;;7.88;79.61;100353.34;10484704;28;20044;-78
2022/12/24 17:04:26;;;;;;;31.80;10.25;;;;;;;7.95;79.87;100357.28;10476710;28;20065;-78
2022/12/24 17:09:30;;;;;;;;;;;;;;;7.94;79.09;100366.28;10498882;28;20071;-78
2022/12/24 17:14:33;;;;;;;41.08;9.85;;;;;;;7.92;79.90;100366.38;10487305;28;19964;-78
2022/12/24 17:19:36;;;;;;;33.33;9.77;;;;;;;7.88;79.77;100366.72;10488571;28;20045;-78
2022/12/24 17:24:40;;;;;;;34.47;10.00;;;;;;;7.78;79.50;100369.16;10471852;28;20051;-78
2022/12/24 17:29:43;;;;;;;42.10;9.60;;;;;;;7.81;79.32;100368.09;10495611;28;20048;-78
2022/12/24 17:34:46;;;;;;;25.75;9.95;;;;;;;7.52;79.04;100368.28;10487757;28;20045;-78
2022/12/24 17:39:50;;;;;;;31.35;8.60;;;;;;;7.45;79.52;100375.00;10474147;28;20131;-77
2022/12/24 17:44:53;;;;;;;30.00;8.73;;;;;;;7.57;79.09;100379.53;10461518;28;20048;-77
2022/12/24 17:49:56;;;;;;;24.25;9.00;;;;;;;7.59;79.03;100384.75;10464155;28;20067;-78
2022/12/24 17:55:00;;;;;;;29.92;10.10;;;;;;;7.59;78.83;100380.25;10484020;28;20478;-78
2022/12/24 18:00:04;;;;;;;26.90;9.57;;;;;;;7.66;78.71;100373.53;10471036;28;20091;-78
2022/12/24 18:05:07;;;;;;;26.63;9.23;;;;;;;7.50;78.37;100392.44;10469889;28;20048;-78
2022/12/24 18:10:12;;;;;;;31.10;10.90;;;;;;;7.42;78.61;100391.25;10470353;28;20048;-77
2022/12/24 18:15:18;;;;;;;37.95;11.50;;;;;;;7.39;78.50;100399.47;10474403;28;20071;-80
2022/12/24 18:20:21;;;;;;;31.90;10.38;;;;;;;7.24;78.75;100407.59;10491707;28;20445;-78
2022/12/24 18:25:26;;;;;;;26.13;10.20;;;;;;;7.39;78.56;100391.47;10459572;28;20090;-78
2022/12/24 18:30:28;;;;;;;27.65;10.40;;;;;;;7.36;79.14;100399.69;10460329;28;20052;-78
2022/12/24 18:35:31;;;;;;;32.25;11.40;;;;;;;7.24;78.94;100396.00;10470647;28;20094;-78
2022/12/24 18:40:37;;;;;;;34.28;11.60;;;;;;;7.22;78.62;100401.47;10461429;28;20324;-78
2022/12/24 18:45:40;;;;;;;30.80;10.95;;;;;;;7.12;78.23;100391.50;10462187;28;20037;-78
2022/12/24 18:50:43;;;;;;;27.48;9.27;;;;;;;7.19;78.05;100390.16;10477543;28;20036;-78
2022/12/24 18:55:47;;;;;;;33.97;11.20;;;;;;;7.20;78.29;100379.34;10491100;28;20060;-78
2022/12/24 19:00:50;;;;;;;30.27;9.98;;;;;;;7.18;77.87;100391.09;10467830;28;20068;-78
2022/12/24 19:05:53;;;;;;;31.92;11.60;;;;;;;7.11;77.80;100393.31;10484987;28;20079;-78
2022/12/24 19:10:57;;;;;;;34.97;10.07;;;;;;;7.02;77.90;100408.16;10485493;28;20047;-78
2022/12/24 19:16:00;;;;;;;29.52;11.55;;;;;;;6.85;78.36;100409.19;10458353;28;20049;-78
2022/12/24 19:21:05;;;;;;;35.58;11.23;;;;;;;6.82;79.06;100417.41;10459380;28;20576;-78
2022/12/24 19:26:10;;;;;;;35.30;11.95;;;;;;;6.94;78.56;100423.81;10458659;28;20152;-77
2022/12/24 19:31:15;;;;;;;35.63;12.38;;;;;;;7.00;78.26;100438.59;10479428;28;20458;-78
2022/12/24 19:36:20;;;;;;;36.33;12.40;;;;;;;7.05;78.44;100434.66;10470032;28;20512;-78
2022/12/24 19:41:27;;;;;;;40.10;13.02;;;;;;;7.05;78.24;100434.66;10493526;28;20113;-78
2022/12/24 19:46:31;;;;;;;36.90;12.75;;;;;;;6.92;79.36;100440.91;10489753;28;20083;-78
2022/12/24 19:51:35;;;;;;;36.15;12.75;;;;;;;6.78;80.20;100439.09;10488491;28;20074;-77
2022/12/24 19:56:39;;;;;;;34.33;13.90;;;;;;;6.67;80.73;100460.28;10474780;28;20044;-79
2022/12/24 20:01:42;;;;;;;34.65;13.65;;;;;;;6.61;81.28;100448.19;10489888;28;20513;-78
2022/12/24 20:06:46;;;;;;;34.95;15.38;;;;;;;6.58;81.84;100449.22;10494061;28;20478;-78
2022/12/24 20:11:51;;;;;;;41.92;15.23;;;;;;;6.53;81.77;100445.97;10471891;28;20067;-78
2022/12/24 20:16:54;;;;;;;36.13;13.90;;;;;;;6.46;82.00;100449.13;10480716;28;20041;-78
2022/12/24 20:21:56;;;;;;;48.58;16.65;;;;;;;6.36;82.22;100456.84;10464686;28;20051;-78
2022/12/24 20:27:01;;;;;;;44.85;14.93;;;;;;;6.29;82.54;100453.72;10493188;28;20041;-77
2022/12/24 20:32:04;;;;;;;35.33;14.98;;;;;;;6.21;82.56;100452.47;10518680;28;20052;-78
2022/12/24 20:37:07;;;;;;;43.88;14.75;;;;;;;6.11;82.59;100457.50;10496906;28;20128;-78
2022/12/24 20:42:11;;;;;;;41.08;12.13;;;;;;;6.13;82.72;100445.78;10492979;28;20041;-78
2022/12/24 20:47:14;;;;;;;35.45;12.60;;;;;;;6.20;82.97;100442.72;10473770;28;20041;-78
2022/12/24 20:52:17;;;;;;;35.72;13.50;;;;;;;6.14;82.97;100441.31;10497466;28;20087;-78
2022/12/24 20:57:21;;;;;;;42.58;13.48;;;;;;;6.10;83.01;100445.97;10479231;28;20045;-78
2022/12/24 21:02:31;;;;;;;37.53;13.32;;;;;;;6.12;83.43;100452.09;10483878;28;20080;-78
2022/12/24 21:07:34;;;;;;;51.92;14.68;;;;;;;6.16;83.50;100471.41;10474472;28;20055;-78
2022/12/24 21:12:55;;;;;;;37.30;13.15;;;;;;;6.07;83.05;100474.66;10494643;28;20040;-78
2022/12/24 21:18:08;;;;;;;38.38;13.25;;;;;;;5.96;82.97;100491.31;10485378;28;20048;-77
2022/12/24 21:23:11;;;;;;;34.75;11.20;;;;;;;5.82;82.96;100486.78;10492999;28;20054;-78
2022/12/24 21:28:16;;;;;;;40.78;10.52;;;;;;;5.93;83.04;100487.00;10470785;28;20039;-78
2022/12/24 21:33:19;;;;;;;35.78;10.82;;;;;;;5.98;82.60;100497.41;10485446;28;20056;-77
2022/12/24 21:38:22;;;;;;;27.92;9.07;;;;;;;6.02;82.59;100485.59;10476927;28;20632;-78
2022/12/24 21:43:26;;;;;;;41.08;11.82;;;;;;;6.02;82.71;100482.94;10478202;28;20049;-78
2022/12/24 21:59:11;;;;;;;33.00;11.38;;;;;;;6.02;82.86;100498.06;10489591;28;20147;-78
2022/12/24 22:04:15;;;;;;;34.83;11.30;;;;;;;6.00;82.59;100492.81;10496603;28;20044;-78
2022/12/24 22:14:49;;;;;;;27.13;8.98;;;;;;;5.92;82.30;100460.44;10439123;28;20044;-78
2022/12/24 22:19:51;;;;;;;36.95;9.52;;;;;;;5.96;82.48;100464.63;10477671;28;20626;-78
2022/12/24 22:24:54;;;;;;;43.65;10.35;;;;;;;5.98;82.42;100460.06;10472776;28;20045;-77
2022/12/24 22:29:58;;;;;;;29.50;9.63;;;;;;;5.91;82.28;100462.25;10471490;28;20071;-78
2022/12/24 22:35:01;;;;;;;32.55;9.13;;;;;;;5.89;82.38;100469.47;10483399;28;20052;-78
2022/12/24 22:40:05;;;;;;;30.98;9.88;;;;;;;5.84;82.54;100460.91;10481273;28;20041;-77
2022/12/24 22:45:10;;;;;;;37.13;10.85;;;;;;;5.80;82.09;100451.38;10467213;28;20053;-78
2022/12/24 22:50:20;;;;;;;26.25;10.38;;;;;;;5.78;82.35;100465.72;10489444;28;20048;-78
2022/12/24 22:55:23;;;;;;;37.85;10.93;;;;;;;5.70;82.17;100448.41;10478694;28;20052;-77
2022/12/24 23:00:42;;;;;;;40.50;11.63;;;;;;;5.54;82.18;100444.06;10478143;28;20060;-77
2022/12/24 23:05:45;;;;;;;34.35;10.63;;;;;;;5.55;82.44;100457.31;10467482;28;20049;-78
2022/12/24 23:10:48;;;;;;;41.75;10.10;;;;;;;5.63;82.68;100455.03;10494533;28;20048;-77
2022/12/24 23:15:52;;;;;;;32.85;9.73;;;;;;;5.69;82.87;100441.34;10495400;28;20076;-78
2022/12/24 23:20:55;;;;;;;36.63;13.63;;;;;;;5.68;82.80;100431.66;10472423;28;20502;-77
2022/12/24 23:26:02;;;;;;;37.92;10.50;;;;;;;5.65;82.45;100430.94;10462776;28;20169;-77
2022/12/24 23:31:07;;;;;;;40.33;11.75;;;;;;;5.54;82.56;100422.75;10476473;28;20040;-79
2022/12/24 23:36:10;;;;;;;37.88;10.63;;;;;;;5.49;82.58;100439.03;10483834;28;20045;-77
2022/12/24 23:41:12;;;;;;;36.83;11.15;;;;;;;5.45;82.45;100421.47;10501635;28;20033;-78
2022/12/24 23:46:18;;;;;;;30.90;10.00;;;;;;;5.45;82.80;100429.47;10479557;28;20080;-77
2022/12/24 23:51:23;;;;;;;35.10;12.05;;;;;;;5.56;83.12;100423.50;10485950;28;20104;-77
2022/12/24 23:56:26;;;;;;;48.38;11.73;;;;;;;5.57;82.90;100425.22;10494642;28;20126;-77
